Meath Environmental Platform

Observations for Trim Patrick St

Time AQI Temp °C Hum % Pres Pa CO μg/m³ H₂S μg/m³ NO μg/m³ NO₂ μg/m³ O₃ μg/m³ SO₂ μg/m³ PM1 μg/m³ PM2.5 μg/m³ PM10 μg/m³
Saturday 8 August 2026
01:15 2 14.3 74 38,460 0.26 3.4 3.37 29.82 13.61 0 5.43 9.93 10.92
01:14 2 14.3 74 38,460 0.24 1.82 3.36 19.88 19.55 0 5.43 9.92 10.91
01:13 2 14.3 74 38,460 0.24 2.54 3.37 25 16.9 0 5.43 9.92 10.91
01:12 2 14.3 74 38,460 0.24 2.54 3.36 13.79 25.37 0 4.57 8.49 9.34
01:11 2 14.3 74 38,460 0.25 4.41 3.36 33.34 13.82 0 4.57 8.49 9.34
01:10 2 14.3 74 38,460 0.24 3.58 3.35 25.43 17.11 0 5.43 9.93 10.92
01:09 2 14.3 74 38,460 0.25 4 3.29 24.09 17.08 0 4.57 9.21 10.13
01:08 2 14.2 74 38,460 0.24 4.31 3.32 31.66 13.1 0 4.57 9.21 10.13
01:07 2 14.2 73 38,460 0.24 3.92 3.33 22 19.35 0 6.29 11.36 12.5
01:06 2 14.2 74 38,460 0.24 4.57 3.3 32.99 13.96 0 4.57 9.21 10.13
01:05 2 14.2 74 38,460 0.23 2.47 3.35 18.74 18.05 0 6.29 9.93 10.92
01:04 2 14.2 74 38,460 0.24 2.93 3.26 27.28 14.6 0 5.43 10.63 11.7
01:03 2 14.2 74 38,460 0.24 4.05 3.31 22.03 17.12 0 5.43 9.21 10.13
01:02 2 14.2 74 38,460 0.23 5.27 3.25 28.61 15.68 0 4.57 9.92 10.91
01:01 2 14.2 73 38,460 0.24 3.24 3.29 36.4 8.63 0 4.57 8.51 9.36
01:00 2 14.2 74 38,460 0.23 4.6 3.33 14.88 16.83 0 5.43 9.18 10.1
00:59 2 14.2 74 38,460 0.22 7.79 3.37 39.85 29.37 0 6.29 11.32 12.45
00:58 2 14.2 74 38,460 0.23 7.5 3.35 38.57 25.45 0 6.29 10.63 11.69
00:57 2 14.2 73 38,460 0.22 6.47 3.39 34.26 14.75 0 8 11.37 12.51
00:56 2 14.2 73 38,460 0.22 6.52 3.39 33.42 17.94 0 4.57 9.94 10.93